Time;durP1;ratioP1;P1;durP2;ratioP2;P2;SDS_P1;SDS_P2;PMS_P1;PMS_P2;Temp;Humidity;BMP_temperature;BMP_pressure;BME280_temperature;BME280_humidity;BME280_pressure;Samples;Min_cycle;Max_cycle;Signal;HPM_P1;HPM_P2
2023/04/07 00:00:51;;;;;;;;;;;;;;;2.68;61.24;94957.38;4936570;29;1915;-51
2023/04/07 00:03:17;;;;;;;;;;;;;;;2.42;60.74;94954.91;4936741;29;967;-51
2023/04/07 00:05:43;;;;;;;;;;;;;;;2.13;60.19;94965.88;4936674;29;1046;-51
2023/04/07 00:08:09;;;;;;;;;;;;;;;2.06;60.21;94967.28;4938336;29;1216;-51
2023/04/07 00:10:35;;;;;;;;;;;;;;;2.32;60.07;94970.59;4955672;29;1031;-51
2023/04/07 00:13:02;;;;;;;;;;;;;;;2.60;60.28;94967.66;4956026;29;1024;-50
2023/04/07 00:15:28;;;;;;;;;;;;;;;2.84;61.11;94970.22;4955606;29;1053;-49
2023/04/07 00:17:55;;;;;;;;;;;;;;;2.90;61.33;94967.97;4955892;29;1037;-51
2023/04/07 00:20:21;;;;;;;;;;;;;;;2.48;62.60;94967.63;4955436;29;2000;-50
2023/04/07 00:22:47;;;;;;;;;;;;;;;2.44;64.12;94958.28;4955441;29;1859;-50
2023/04/07 00:25:13;;;;;;;;;;;;;;;2.42;63.97;94960.19;4955421;29;1086;-50
2023/04/07 00:27:39;;;;;;;;;;;;;;;2.70;62.80;94966.84;4955416;28;1013;-50
2023/04/07 00:30:05;;;;;;;;;;;;;;;2.81;61.36;94970.44;4955504;29;1044;-50
2023/04/07 00:32:31;;;;;;;;;;;;;;;2.96;60.29;94968.44;4955421;29;1062;-49
2023/04/07 00:34:57;;;;;;;;;;;;;;;2.84;62.97;94964.94;4955336;29;1942;-50
2023/04/07 00:37:24;;;;;;;;;;;;;;;2.80;60.73;94972.25;4955482;29;971;-50
2023/04/07 00:39:50;;;;;;;;;;;;;;;2.84;62.42;94964.94;4955189;29;1964;-50
2023/04/07 00:42:17;;;;;;;;;;;;;;;2.66;60.56;94969.84;4955526;29;991;-50
2023/04/07 00:44:43;;;;;;;;;;;;;;;2.76;60.89;94973.47;4955105;29;967;-50
2023/04/07 00:47:09;;;;;;;;;;;;;;;2.94;59.50;94968.56;4955152;29;979;-50
2023/04/07 00:49:35;;;;;;;;;;;;;;;3.03;59.61;94973.13;4955177;29;905;-50
2023/04/07 00:52:02;;;;;;;;;;;;;;;3.09;60.00;94972.66;4955025;29;1010;-50
2023/04/07 00:54:29;;;;;;;;;;;;;;;3.07;61.46;94973.72;4954858;29;1319;-50
2023/04/07 00:56:56;;;;;;;;;;;;;;;2.90;61.56;94981.16;4955347;29;1159;-50
2023/04/07 00:59:22;;;;;;;;;;;;;;;2.87;62.56;94972.66;4954940;29;1910;-50
2023/04/07 01:02:01;;;;;;;;;;;;;;;2.85;62.49;94980.69;4955032;29;1090;-50
2023/04/07 01:04:32;;;;;;;;;;;;;;;2.93;62.39;94977.44;4954959;29;1042;-50
2023/04/07 01:07:02;;;;;;;;;;;;;;;2.69;62.79;94983.66;4955177;29;1018;-50
2023/04/07 01:09:52;;;;;;;;;;;;;;;2.80;61.46;94974.06;4942992;29;1169;-50
2023/04/07 01:12:37;;;;;;;;;;;;;;;2.95;62.03;94979.97;4928109;29;1945;-50
2023/04/07 01:15:06;;;;;;;;;;;;;;;2.73;62.15;94978.97;4935650;29;995;-50
2023/04/07 01:17:34;;;;;;;;;;;;;;;2.70;62.82;94976.56;4935856;29;1004;-50
2023/04/07 01:20:07;;;;;;;;;;;;;;;2.66;62.53;94975.13;4935623;29;1907;-50
2023/04/07 01:22:39;;;;;;;;;;;;;;;2.76;62.73;94975.28;4935942;29;1110;-49
2023/04/07 01:25:05;;;;;;;;;;;;;;;2.77;63.01;94980.44;4935690;29;1102;-50
2023/04/07 01:27:42;;;;;;;;;;;;;;;2.73;63.36;94973.69;4935461;29;1041;-50
2023/04/07 01:30:12;;;;;;;;;;;;;;;2.66;64.31;94969.84;4935876;29;1026;-50
2023/04/07 01:32:39;;;;;;;;;;;;;;;2.73;64.47;94966.63;4935925;29;1026;-50
2023/04/07 01:35:09;;;;;;;;;;;;;;;2.77;64.44;94963.72;4935730;29;971;-50
2023/04/07 01:37:36;;;;;;;;;;;;;;;2.51;64.06;94969.22;4935562;29;979;-50
2023/04/07 01:40:03;;;;;;;;;;;;;;;2.33;64.14;94966.16;4937935;29;1902;-50
2023/04/07 01:42:29;;;;;;;;;;;;;;;2.51;64.58;94969.22;4939465;29;1039;-50
2023/04/07 01:44:56;;;;;;;;;;;;;;;2.64;63.58;94969.97;4939184;29;1976;-50
2023/04/07 01:47:23;;;;;;;;;;;;;;;2.33;64.20;94966.16;4939363;29;1023;-50
2023/04/07 01:49:50;;;;;;;;;;;;;;;2.43;64.51;94967.16;4939098;29;1035;-50
2023/04/07 01:52:16;;;;;;;;;;;;;;;2.55;64.92;94968.03;4939259;29;1066;-50
2023/04/07 01:54:42;;;;;;;;;;;;;;;2.60;65.22;94967.66;4938854;29;1207;-51
2023/04/07 01:57:08;;;;;;;;;;;;;;;2.50;65.02;94964.88;4939334;29;967;-50
2023/04/07 01:59:34;;;;;;;;;;;;;;;2.29;64.65;94970.81;4939051;29;1989;-50
2023/04/07 02:02:00;;;;;;;;;;;;;;;2.22;65.29;94969.63;4938904;29;1071;-50
2023/04/07 02:04:26;;;;;;;;;;;;;;;2.35;64.84;94969.53;4938896;29;1010;-50
2023/04/07 02:06:54;;;;;;;;;;;;;;;2.41;64.87;94973.50;4938965;29;1019;-50
2023/04/07 02:09:21;;;;;;;;;;;;;;;2.52;63.98;94969.13;4949472;29;1212;-49
2023/04/07 02:11:48;;;;;;;;;;;;;;;2.46;64.81;94960.81;4957860;29;1238;-50
2023/04/07 02:14:16;;;;;;;;;;;;;;;2.47;64.85;94960.69;4957714;29;1876;-50
2023/04/07 02:16:43;;;;;;;;;;;;;;;2.41;64.62;94961.16;4957781;29;1091;-50
2023/04/07 02:19:09;;;;;;;;;;;;;;;2.23;65.27;94960.75;4957891;29;1119;-49
2023/04/07 02:21:36;;;;;;;;;;;;;;;2.02;65.22;94957.91;4957618;29;1914;-50
2023/04/07 02:24:05;;;;;;;;;;;;;;;1.90;65.99;94953.56;4957610;29;1039;-50
2023/04/07 02:26:35;;;;;;;;;;;;;;;1.93;66.30;94954.16;4957580;29;1074;-50
2023/04/07 02:29:03;;;;;;;;;;;;;;;1.99;65.59;94952.03;4957496;29;1039;-50
2023/04/07 02:31:30;;;;;;;;;;;;;;;1.91;65.78;94953.41;4957490;29;1094;-49
2023/04/07 02:33:56;;;;;;;;;;;;;;;1.68;66.55;94949.84;4957461;29;1103;-50
2023/04/07 02:36:22;;;;;;;;;;;;;;;1.34;65.92;94949.66;4957379;29;1059;-50
2023/04/07 02:38:48;;;;;;;;;;;;;;;1.20;66.35;94955.06;4957691;29;1007;-50
2023/04/07 02:41:14;;;;;;;;;;;;;;;1.37;66.08;94951.22;4957435;29;1914;-49
2023/04/07 02:43:40;;;;;;;;;;;;;;;1.49;65.88;94954.78;4957552;29;1044;-50
2023/04/07 02:46:06;;;;;;;;;;;;;;;1.56;66.07;94951.59;4957264;29;1031;-50
2023/04/07 02:48:32;;;;;;;;;;;;;;;1.45;65.46;94950.69;4957167;29;1039;-49
2023/04/07 02:50:58;;;;;;;;;;;;;;;1.40;66.07;94955.44;4957375;28;1038;-49
2023/04/07 02:53:24;;;;;;;;;;;;;;;1.31;66.04;94952.53;4956842;29;1518;-51
2023/04/07 02:55:50;;;;;;;;;;;;;;;1.09;65.58;94958.47;4957088;29;937;-50
2023/04/07 02:58:16;;;;;;;;;;;;;;;1.22;64.67;94955.81;4957084;29;1067;-51
2023/04/07 03:00:42;;;;;;;;;;;;;;;1.28;64.70;94954.53;4956976;29;2010;-50
2023/04/07 03:03:08;;;;;;;;;;;;;;;1.33;65.30;94955.88;4957098;29;1035;-50
2023/04/07 03:05:34;;;;;;;;;;;;;;;1.23;64.71;94956.63;4957403;29;1023;-50
2023/04/07 03:08:00;;;;;;;;;;;;;;;1.27;64.91;94956.31;4956687;29;1192;-50
2023/04/07 03:10:26;;;;;;;;;;;;;;;1.42;65.07;94958.78;4937588;29;1043;-50
2023/04/07 03:12:52;;;;;;;;;;;;;;;1.22;64.49;94958.44;4937771;29;999;-51
2023/04/07 03:15:18;;;;;;;;;;;;;;;1.09;64.12;94963.72;4937879;29;1041;-50
2023/04/07 03:17:44;;;;;;;;;;;;;;;1.13;64.64;94964.34;4937810;29;992;-50
2023/04/07 03:20:10;;;;;;;;;;;;;;;1.35;65.00;94969.78;4937466;29;1919;-50
2023/04/07 03:22:36;;;;;;;;;;;;;;;1.43;65.50;94965.75;4937964;29;1042;-51
2023/04/07 03:25:03;;;;;;;;;;;;;;;1.39;64.73;94967.78;4937474;29;1041;-50
2023/04/07 03:27:29;;;;;;;;;;;;;;;1.31;66.26;94970.09;4937169;29;1091;-50
2023/04/07 03:29:55;;;;;;;;;;;;;;;1.05;66.97;94971.97;4937337;29;1075;-50
2023/04/07 03:32:21;;;;;;;;;;;;;;;0.81;67.89;94975.34;4937233;29;1114;-50
2023/04/07 03:34:47;;;;;;;;;;;;;;;0.89;67.72;94975.66;4937297;29;1024;-50
2023/04/07 03:37:13;;;;;;;;;;;;;;;0.99;67.77;94967.97;4937350;29;979;-50
2023/04/07 03:39:39;;;;;;;;;;;;;;;1.05;67.45;94971.97;4937305;29;1994;-50
2023/04/07 03:42:05;;;;;;;;;;;;;;;1.07;67.54;94976.16;4937113;29;1009;-51
2023/04/07 03:44:31;;;;;;;;;;;;;;;1.03;67.02;94979.13;4937004;29;1874;-51
2023/04/07 03:46:57;;;;;;;;;;;;;;;1.05;67.23;94975.44;4937110;29;1035;-49
2023/04/07 03:49:23;;;;;;;;;;;;;;;0.97;67.92;94985.66;4936962;29;954;-50
2023/04/07 03:51:49;;;;;;;;;;;;;;;0.89;68.45;94994.09;4936776;29;995;-50
2023/04/07 03:54:15;;;;;;;;;;;;;;;0.82;68.47;94984.94;4936673;29;1317;-49
2023/04/07 03:56:41;;;;;;;;;;;;;;;0.82;69.41;94987.56;4936693;29;1027;-51
2023/04/07 03:59:08;;;;;;;;;;;;;;;0.73;68.40;94991.66;4936747;29;2012;-51
2023/04/07 04:01:34;;;;;;;;;;;;;;;0.44;68.36;94991.03;4936243;29;1907;-51
2023/04/07 04:04:01;;;;;;;;;;;;;;;0.53;68.62;95000.06;4936696;29;1088;-49
2023/04/07 04:06:27;;;;;;;;;;;;;;;0.45;69.12;94997.94;4936560;29;1019;-50
2023/04/07 04:08:53;;;;;;;;;;;;;;;0.52;69.24;94993.13;4943917;29;1220;-50
2023/04/07 04:11:20;;;;;;;;;;;;;;;0.79;68.20;94993.03;4955986;29;1062;-50
2023/04/07 04:13:46;;;;;;;;;;;;;;;0.90;68.73;95000.19;4955759;29;1049;-51
2023/04/07 04:16:13;;;;;;;;;;;;;;;0.89;68.61;94999.34;4955855;29;1003;-51
2023/04/07 04:18:38;;;;;;;;;;;;;;;0.69;69.23;94994.63;4955640;29;1017;-51
2023/04/07 04:21:05;;;;;;;;;;;;;;;0.56;69.29;94995.44;4955470;29;1989;-49
2023/04/07 04:23:31;;;;;;;;;;;;;;;0.34;68.95;95009.22;4955717;29;1046;-51
2023/04/07 04:25:59;;;;;;;;;;;;;;;0.26;69.00;95006.22;4955708;29;987;-50
2023/04/07 04:28:25;;;;;;;;;;;;;;;0.23;68.97;95013.47;4955290;29;1191;-50
2023/04/07 04:30:51;;;;;;;;;;;;;;;0.57;68.36;95015.56;4955534;29;1037;-50
2023/04/07 04:33:17;;;;;;;;;;;;;;;0.96;67.76;95010.28;4955606;29;1024;-50
2023/04/07 04:35:44;;;;;;;;;;;;;;;2.15;63.66;95015.88;4955611;29;1055;-50
2023/04/07 04:38:10;;;;;;;;;;;;;;;2.84;61.33;95015.94;4955283;29;1086;-50
2023/04/07 04:40:36;;;;;;;;;;;;;;;3.33;59.77;95008.69;4955388;29;1905;-51
2023/04/07 04:43:05;;;;;;;;;;;;;;;3.38;58.73;95009.16;4955291;29;1031;-51
2023/04/07 04:45:32;;;;;;;;;;;;;;;3.26;57.85;95024.19;4955206;29;961;-51
2023/04/07 04:47:58;;;;;;;;;;;;;;;3.85;57.05;95009.81;4955140;29;1098;-51
2023/04/07 04:50:24;;;;;;;;;;;;;;;4.46;55.97;95017.19;4955325;29;1046;-51
2023/04/07 04:52:51;;;;;;;;;;;;;;;4.76;55.48;95012.97;4955106;29;1320;-50
2023/04/07 04:55:17;;;;;;;;;;;;;;;4.62;55.47;95024.69;4955006;29;1310;-50
2023/04/07 04:57:44;;;;;;;;;;;;;;;4.22;56.13;95017.41;4955176;29;1042;-51
2023/04/07 05:00:10;;;;;;;;;;;;;;;4.02;57.51;95016.41;4954996;29;1993;-51
2023/04/07 05:02:36;;;;;;;;;;;;;;;3.86;58.23;95015.94;4938012;29;1098;-50
2023/04/07 05:05:02;;;;;;;;;;;;;;;3.67;58.37;95021.88;4954971;29;1094;-50
2023/04/07 05:07:28;;;;;;;;;;;;;;;3.36;58.71;95023.44;4955327;29;972;-51
2023/04/07 05:09:54;;;;;;;;;;;;;;;3.32;58.81;95014.94;4939649;29;1160;-51
2023/04/07 05:12:21;;;;;;;;;;;;;;;3.35;59.12;95027.88;4935808;29;1964;-51
2023/04/07 05:14:47;;;;;;;;;;;;;;;3.43;59.52;95025.47;4938504;29;972;-51
2023/04/07 05:17:13;;;;;;;;;;;;;;;3.72;59.33;95028.47;4939806;29;1122;-51
2023/04/07 05:19:39;;;;;;;;;;;;;;;3.94;59.60;95032.03;4939765;29;1907;-51
2023/04/07 05:22:05;;;;;;;;;;;;;;;4.04;60.32;95025.06;4940104;29;1010;-52
2023/04/07 05:24:31;;;;;;;;;;;;;;;4.16;59.61;95032.97;4939886;29;962;-51
2023/04/07 05:26:57;;;;;;;;;;;;;;;4.25;60.25;95037.47;4939899;29;1310;-51
2023/04/07 05:29:23;;;;;;;;;;;;;;;4.43;60.90;95029.84;4939705;29;1038;-50
2023/04/07 05:31:49;;;;;;;;;;;;;;;4.51;60.41;95038.00;4922839;29;975;-49
2023/04/07 05:34:16;;;;;;;;;;;;;;;4.58;61.45;95043.63;4939820;29;1206;-49
2023/04/07 05:36:42;;;;;;;;;;;;;;;4.65;61.73;95034.22;4939524;29;1039;-50
2023/04/07 05:39:08;;;;;;;;;;;;;;;4.83;61.40;95034.47;4939614;29;1624;-50
2023/04/07 05:41:34;;;;;;;;;;;;;;;4.97;60.92;95030.66;4939563;29;1985;-49
2023/04/07 05:44:00;;;;;;;;;;;;;;;5.05;60.48;95033.50;4939534;29;1125;-50
2023/04/07 05:46:26;;;;;;;;;;;;;;;5.25;59.20;95034.44;4939334;29;1090;-50
2023/04/07 05:48:52;;;;;;;;;;;;;;;5.45;58.73;95035.38;4939540;29;964;-50
2023/04/07 05:51:18;;;;;;;;;;;;;;;5.65;58.44;95029.19;4939256;29;1976;-50
2023/04/07 05:53:44;;;;;;;;;;;;;;;5.74;58.13;95032.84;4939137;29;1104;-50
2023/04/07 05:56:10;;;;;;;;;;;;;;;5.79;59.01;95027.16;4939341;29;1051;-50
2023/04/07 05:58:36;;;;;;;;;;;;;;;6.09;56.91;95025.41;4939262;29;1026;-50
2023/04/07 06:01:02;;;;;;;;;;;;;;;6.44;56.33;95030.22;4939042;29;2004;-49
2023/04/07 06:03:28;;;;;;;;;;;;;;;6.54;55.84;95041.69;4939191;29;1197;-50
2023/04/07 06:05:54;;;;;;;;;;;;;;;6.60;54.88;95033.19;4939054;29;1106;-50
2023/04/07 06:08:21;;;;;;;;;;;;;;;6.84;54.52;95038.06;4942124;29;1165;-50
2023/04/07 06:10:47;;;;;;;;;;;;;;;7.28;53.20;95039.41;4958060;29;1113;-50
2023/04/07 06:13:13;;;;;;;;;;;;;;;7.73;52.34;95044.84;4958092;29;1018;-50
2023/04/07 06:15:39;;;;;;;;;;;;;;;7.43;51.03;95043.28;4957949;29;1035;-50
2023/04/07 06:18:05;;;;;;;;;;;;;;;7.72;51.21;95047.66;4957940;29;1587;-50
2023/04/07 06:20:31;;;;;;;;;;;;;;;8.00;50.14;95044.00;4957987;29;1991;-50
2023/04/07 06:22:57;;;;;;;;;;;;;;;7.72;50.23;95035.22;4957864;29;1101;-50
2023/04/07 06:25:23;;;;;;;;;;;;;;;7.78;50.75;95041.78;4957347;28;990;-50
2023/04/07 06:27:49;;;;;;;;;;;;;;;8.13;48.34;95056.16;4958109;29;1022;-50
2023/04/07 06:30:15;;;;;;;;;;;;;;;8.37;49.77;95045.78;4958033;29;1101;-50
2023/04/07 06:32:41;;;;;;;;;;;;;;;8.72;46.97;95052.16;4957683;29;1027;-50
2023/04/07 06:35:08;;;;;;;;;;;;;;;8.77;47.48;95049.88;4957771;29;1887;-49
2023/04/07 06:37:34;;;;;;;;;;;;;;;8.96;47.66;95056.06;4957954;29;979;-50
2023/04/07 06:40:00;;;;;;;;;;;;;;;9.03;47.46;95054.44;4957376;29;1981;-50
2023/04/07 06:42:26;;;;;;;;;;;;;;;9.27;46.55;95052.94;4957471;29;1101;-50
2023/04/07 06:44:52;;;;;;;;;;;;;;;9.80;45.36;95056.47;4957484;29;1031;-50
2023/04/07 06:47:18;;;;;;;;;;;;;;;9.99;43.79;95063.41;4940356;29;1039;-50
2023/04/07 06:49:44;;;;;;;;;;;;;;;10.05;44.83;95054.75;4957735;29;1062;-50
2023/04/07 06:52:10;;;;;;;;;;;;;;;10.34;42.37;95068.59;4957552;29;1011;-50
2023/04/07 06:54:36;;;;;;;;;;;;;;;10.06;43.55;95069.78;4957155;29;1087;-50
2023/04/07 06:57:02;;;;;;;;;;;;;;;10.01;40.72;95077.44;4957160;29;1509;-50
2023/04/07 06:59:29;;;;;;;;;;;;;;;10.39;41.09;95068.09;4957079;29;2448;-50
2023/04/07 07:01:55;;;;;;;;;;;;;;;10.99;38.76;95083.13;4957192;29;1031;-50
2023/04/07 07:04:21;;;;;;;;;;;;;;;10.99;38.53;95077.78;4957122;29;1035;-50
2023/04/07 07:06:47;;;;;;;;;;;;;;;11.19;38.01;95078.28;4957045;29;1281;-50
2023/04/07 07:09:13;;;;;;;;;;;;;;;11.00;37.68;95082.09;4947073;29;1156;-50
2023/04/07 07:11:39;;;;;;;;;;;;;;;10.86;38.07;95075.56;4938054;29;1073;-50
2023/04/07 07:14:05;;;;;;;;;;;;;;;10.85;38.27;95073.91;4937790;29;1035;-50
2023/04/07 07:16:31;;;;;;;;;;;;;;;11.26;39.61;95065.91;4937689;29;1032;-50
2023/04/07 07:18:57;;;;;;;;;;;;;;;12.01;39.54;95063.97;4920857;29;1482;-50
2023/04/07 07:21:23;;;;;;;;;;;;;;;11.84;36.98;95072.06;4937815;29;1910;-50
2023/04/07 07:23:49;;;;;;;;;;;;;;;11.93;37.37;95072.06;4937836;29;1028;-50
2023/04/07 07:26:15;;;;;;;;;;;;;;;12.01;36.08;95078.25;4937487;29;1007;-50
2023/04/07 07:28:41;;;;;;;;;;;;;;;12.12;34.65;95079.69;4937853;29;1019;-50
2023/04/07 07:31:12;;;;;;;;;;;;;;;12.02;36.55;95081.75;4937458;29;1585;-51
2023/04/07 07:33:39;;;;;;;;;;;;;;;11.97;35.56;95084.97;4937758;29;1022;-50
2023/04/07 07:36:06;;;;;;;;;;;;;;;11.71;37.60;95075.25;4936951;29;1188;-50
2023/04/07 07:38:32;;;;;;;;;;;;;;;11.51;36.82;95076.59;4937200;29;1019;-50
2023/04/07 07:40:58;;;;;;;;;;;;;;;11.49;35.32;95079.44;4937216;29;2064;-50
2023/04/07 07:43:25;;;;;;;;;;;;;;;11.47;35.90;95076.09;4937487;29;1000;-51
2023/04/07 07:45:51;;;;;;;;;;;;;;;12.46;36.43;95078.56;4937321;29;1032;-51
2023/04/07 07:48:17;;;;;;;;;;;;;;;12.90;36.22;95078.03;4937187;29;1041;-51
2023/04/07 07:50:43;;;;;;;;;;;;;;;13.05;35.54;95083.44;4937392;29;1015;-51
2023/04/07 07:53:09;;;;;;;;;;;;;;;13.32;34.42;95081.25;4937057;29;1097;-51
2023/04/07 07:55:36;;;;;;;;;;;;;;;13.04;34.82;95079.94;4937319;29;1045;-50
2023/04/07 07:58:02;;;;;;;;;;;;;;;13.50;34.21;95078.28;4937125;29;984;-51
2023/04/07 08:00:28;;;;;;;;;;;;;;;13.38;34.55;95080.56;4936758;29;1903;-51
2023/04/07 08:02:54;;;;;;;;;;;;;;;13.35;33.73;95084.44;4936940;29;1226;-50
2023/04/07 08:05:20;;;;;;;;;;;;;;;13.90;33.69;95086.97;4937114;29;1038;-51
2023/04/07 08:07:47;;;;;;;;;;;;;;;13.88;33.91;95080.97;4936811;29;1037;-51
2023/04/07 08:10:13;;;;;;;;;;;;;;;12.90;35.06;95078.03;4954787;29;1169;-51
2023/04/07 08:12:39;;;;;;;;;;;;;;;11.57;34.20;95085.81;4955934;29;1035;-51
2023/04/07 08:15:08;;;;;;;;;;;;;;;11.82;36.67;95074.06;4955898;29;1062;-50
2023/04/07 08:17:35;;;;;;;;;;;;;;;12.41;35.57;95072.91;4956062;29;982;-51
2023/04/07 08:20:02;;;;;;;;;;;;;;;12.99;35.55;95076.94;4956009;29;1993;-51
2023/04/07 08:22:28;;;;;;;;;;;;;;;12.44;35.47;95075.22;4955666;29;1031;-50
2023/04/07 08:24:54;;;;;;;;;;;;;;;12.16;34.06;95080.19;4938699;29;1023;-52
2023/04/07 08:27:21;;;;;;;;;;;;;;;12.09;35.32;95080.88;4955889;29;952;-51
2023/04/07 08:30:00;;;;;;;;;;;;;;;11.89;36.61;95080.44;4955697;29;1084;-51
2023/04/07 08:32:42;;;;;;;;;;;;;;;12.17;36.17;95071.97;4955857;29;1035;-51
2023/04/07 08:35:08;;;;;;;;;;;;;;;12.59;35.11;95072.66;4955920;29;1066;-51
2023/04/07 08:37:35;;;;;;;;;;;;;;;11.85;35.26;95079.06;4955760;29;1069;-51
2023/04/07 08:40:02;;;;;;;;;;;;;;;12.66;36.15;95062.91;4955334;29;1990;-51
2023/04/07 08:42:29;;;;;;;;;;;;;;;13.09;33.80;95063.31;4955329;29;1210;-51
2023/04/07 08:44:57;;;;;;;;;;;;;;;13.61;32.09;95065.25;4955610;29;973;-50
2023/04/07 08:47:25;;;;;;;;;;;;;;;12.66;33.56;95068.25;4955172;29;1078;-51
2023/04/07 08:49:52;;;;;;;;;;;;;;;13.14;35.15;95062.75;4955632;29;1011;-51
2023/04/07 08:52:21;;;;;;;;;;;;;;;14.09;33.17;95054.19;4938381;29;967;-51
2023/04/07 08:54:48;;;;;;;;;;;;;;;15.18;31.15;95078.53;4955003;29;1114;-51
2023/04/07 08:57:15;;;;;;;;;;;;;;;15.75;31.92;95075.97;4955432;29;1047;-51
2023/04/07 08:59:44;;;;;;;;;;;;;;;15.24;29.75;95082.31;4955196;29;1903;-51
2023/04/07 09:02:10;;;;;;;;;;;;;;;15.50;31.63;95076.34;4955165;29;1111;-51
2023/04/07 09:04:36;;;;;;;;;;;;;;;14.99;31.40;95066.53;4955301;29;1048;-51
2023/04/07 09:07:02;;;;;;;;;;;;;;;13.93;30.56;95076.69;4955450;29;1286;-51
2023/04/07 09:09:28;;;;;;;;;;;;;;;13.01;33.28;95063.34;4943365;29;1160;-51
2023/04/07 09:11:54;;;;;;;;;;;;;;;12.68;32.99;95060.88;4936268;29;1047;-51
2023/04/07 09:14:20;;;;;;;;;;;;;;;12.86;36.24;95053.38;4936211;29;1039;-51
2023/04/07 09:16:46;;;;;;;;;;;;;;;12.92;35.49;95056.34;4936061;29;977;-51
2023/04/07 09:19:12;;;;;;;;;;;;;;;13.79;35.13;95056.88;4936136;29;967;-51
2023/04/07 09:22:05;;;;;;;;;;;;;;;14.48;33.25;95058.44;4935885;29;1914;-51
2023/04/07 09:24:31;;;;;;;;;;;;;;;14.38;33.38;95064.09;4933184;29;1360;-51
2023/04/07 09:27:10;;;;;;;;;;;;;;;14.00;33.80;95056.13;4936120;29;986;-51
2023/04/07 09:29:36;;;;;;;;;;;;;;;13.83;32.73;95060.84;4935916;29;943;-51
2023/04/07 09:32:02;;;;;;;;;;;;;;;13.06;32.84;95063.66;4918952;29;1094;-51
2023/04/07 09:34:31;;;;;;;;;;;;;;;12.72;32.76;95056.00;4935937;29;1039;-51
2023/04/07 09:36:57;;;;;;;;;;;;;;;13.01;33.69;95052.59;4936036;29;1088;-51
2023/04/07 09:39:23;;;;;;;;;;;;;;;13.00;34.71;95059.00;4935922;29;1026;-51
2023/04/07 09:41:50;;;;;;;;;;;;;;;12.84;33.74;95055.41;4935966;29;1911;-51
2023/04/07 09:44:20;;;;;;;;;;;;;;;12.86;34.92;95041.78;4935734;29;1024;-51
2023/04/07 09:46:54;;;;;;;;;;;;;;;12.39;32.53;95059.69;4935745;29;999;-51
2023/04/07 09:49:20;;;;;;;;;;;;;;;12.14;32.81;95053.59;4935856;29;968;-51
2023/04/07 09:51:54;;;;;;;;;;;;;;;12.52;35.55;95043.03;4935648;29;1020;-51
2023/04/07 09:57:51;;;;;;;;;;;;;;;14.35;33.57;95047.50;4916839;29;1063;-51
2023/04/07 10:00:17;;;;;;;;;;;;;;;13.88;34.46;95054.91;4918050;29;1911;-51
2023/04/07 10:02:44;;;;;;;;;;;;;;;13.36;33.18;95058.44;4920173;29;1047;-51
2023/04/07 10:05:10;;;;;;;;;;;;;;;12.90;33.55;95064.59;4920131;29;975;-51
2023/04/07 10:07:36;;;;;;;;;;;;;;;12.93;35.84;95052.66;4920400;29;1038;-51
2023/04/07 10:10:03;;;;;;;;;;;;;;;13.34;34.25;95055.09;4903735;29;1164;-51
2023/04/07 10:12:30;;;;;;;;;;;;;;;13.93;34.36;95049.00;4901119;29;1114;-51
2023/04/07 10:14:57;;;;;;;;;;;;;;;14.33;32.69;95053.06;4901370;29;1035;-51
2023/04/07 10:17:23;;;;;;;;;;;;;;;14.17;32.27;95062.19;4901131;29;995;-51
2023/04/07 10:19:50;;;;;;;;;;;;;;;13.37;33.51;95052.03;4900875;29;1907;-51
2023/04/07 10:22:16;;;;;;;;;;;;;;;13.54;33.60;95055.41;4901001;29;974;-51
2023/04/07 10:25:01;;;;;;;;;;;;;;;13.88;31.83;95057.59;4908018;29;1481;-51
2023/04/07 10:27:35;;;;;;;;;;;;;;;13.36;31.72;95063.81;4919026;29;1436;-51
2023/04/07 10:30:04;;;;;;;;;;;;;;;13.28;33.74;95064.69;4918919;29;1492;-51
2023/04/07 10:32:30;;;;;;;;;;;;;;;13.61;32.51;95065.25;4918347;29;1414;-50
2023/04/07 10:34:57;;;;;;;;;;;;;;;13.47;32.06;95064.19;4919599;29;1027;-51
2023/04/07 10:37:23;;;;;;;;;;;;;;;14.00;34.81;95045.38;4919477;29;976;-50
2023/04/07 10:39:50;;;;;;;;;;;;;;;14.34;33.75;95057.44;4919684;29;2110;-51
2023/04/07 10:42:35;;;;;;;;;;;;;;;14.07;32.23;95056.22;4919548;29;1022;-51
2023/04/07 10:45:02;;;;;;;;;;;;;;;13.65;32.49;95057.66;4919503;29;987;-51
2023/04/07 10:47:28;;;;;;;;;;;;;;;13.42;33.83;95047.78;4919572;29;1034;-50
2023/04/07 10:50:12;;;;;;;;;;;;;;;13.22;33.18;95057.31;4919344;29;1054;-51
2023/04/07 10:52:38;;;;;;;;;;;;;;;13.52;34.20;95038.66;4919195;29;1028;-51
2023/04/07 10:55:23;;;;;;;;;;;;;;;13.35;33.50;95049.53;4919456;29;980;-51
2023/04/07 10:58:08;;;;;;;;;;;;;;;12.66;33.19;95049.47;4918458;29;1437;-51
2023/04/07 11:00:34;;;;;;;;;;;;;;;12.01;33.74;95042.53;4917553;29;1906;-50
2023/04/07 11:03:08;;;;;;;;;;;;;;;12.01;33.34;95043.41;4918145;29;1457;-51
2023/04/07 11:05:37;;;;;;;;;;;;;;;12.04;34.53;95043.03;4918980;29;1269;-50
2023/04/07 11:08:05;;;;;;;;;;;;;;;12.26;34.64;95046.81;4917700;29;1418;-50
2023/04/07 11:10:31;;;;;;;;;;;;;;;12.27;34.05;95042.28;4907950;29;1445;-50
2023/04/07 11:12:58;;;;;;;;;;;;;;;12.58;34.50;95047.69;4917690;29;1099;-51
2023/04/07 11:15:24;;;;;;;;;;;;;;;12.65;34.76;95043.28;4919093;29;1032;-50
2023/04/07 11:18:09;;;;;;;;;;;;;;;12.95;34.35;95039.91;4916730;29;2615;-51
2023/04/07 11:20:49;;;;;;;;;;;;;;;13.51;35.44;95036.97;4918735;29;1984;-51
2023/04/07 11:23:16;;;;;;;;;;;;;;;13.40;34.54;95039.09;4918560;29;1043;-50
2023/04/07 11:25:44;;;;;;;;;;;;;;;13.50;34.96;95033.44;4918721;29;1063;-52
2023/04/07 11:28:11;;;;;;;;;;;;;;;13.18;33.79;95039.91;4918962;29;978;-51
2023/04/07 11:30:38;;;;;;;;;;;;;;;12.90;34.50;95035.09;4918871;29;959;-51
2023/04/07 11:33:04;;;;;;;;;;;;;;;12.87;34.86;95035.44;4918694;29;1030;-51
2023/04/07 11:35:30;;;;;;;;;;;;;;;12.96;34.78;95037.06;4918699;29;1045;-51
2023/04/07 11:37:58;;;;;;;;;;;;;;;12.96;34.29;95042.41;4918442;29;1114;-51
2023/04/07 11:40:35;;;;;;;;;;;;;;;12.79;32.62;95030.97;4918570;29;1907;-51
2023/04/07 11:43:02;;;;;;;;;;;;;;;12.78;34.36;95029.28;4917404;29;1023;-52
2023/04/07 11:45:28;;;;;;;;;;;;;;;12.77;34.99;95021.44;4918397;29;1042;-51
2023/04/07 11:47:54;;;;;;;;;;;;;;;13.03;34.21;95023.75;4918474;29;1043;-51
2023/04/07 11:50:39;;;;;;;;;;;;;;;12.98;34.67;95018.09;4918156;29;951;-51
2023/04/07 11:53:06;;;;;;;;;;;;;;;13.11;35.71;95012.09;4918109;29;1267;-51
2023/04/07 11:55:32;;;;;;;;;;;;;;;12.99;35.67;95014.38;4919175;29;1088;-52
2023/04/07 11:58:05;;;;;;;;;;;;;;;12.78;34.08;95006.97;4937156;29;1107;-51
2023/04/07 12:00:31;;;;;;;;;;;;;;;12.85;35.07;95013.31;4936959;29;1986;-51
2023/04/07 12:03:07;;;;;;;;;;;;;;;12.99;35.33;95003.66;4936907;29;1039;-51
2023/04/07 12:05:45;;;;;;;;;;;;;;;12.94;35.60;95006.03;4920002;29;1023;-51
2023/04/07 12:08:12;;;;;;;;;;;;;;;13.11;34.65;95010.28;4921745;29;1232;-51
2023/04/07 12:10:40;;;;;;;;;;;;;;;13.06;34.84;95010.78;4955954;29;1023;-51
2023/04/07 12:13:07;;;;;;;;;;;;;;;13.21;35.57;95008.16;4955924;29;1071;-51
2023/04/07 12:15:33;;;;;;;;;;;;;;;13.32;34.79;95014.13;4955892;29;1283;-51
2023/04/07 12:17:59;;;;;;;;;;;;;;;13.41;32.74;95010.38;4956097;29;1019;-51
2023/04/07 12:20:26;;;;;;;;;;;;;;;13.21;33.13;95015.38;4955988;29;1906;-51
2023/04/07 12:22:52;;;;;;;;;;;;;;;13.37;33.81;95009.88;4955469;28;979;-52
2023/04/07 12:25:18;;;;;;;;;;;;;;;13.38;32.81;95005.38;4955655;29;933;-51
2023/04/07 12:27:44;;;;;;;;;;;;;;;13.19;35.19;95009.38;4955780;29;1158;-51
2023/04/07 12:30:12;;;;;;;;;;;;;;;13.20;35.96;95005.66;4955826;29;971;-51
2023/04/07 12:32:38;;;;;;;;;;;;;;;13.00;33.87;95003.47;4955871;29;998;-51
2023/04/07 12:35:04;;;;;;;;;;;;;;;12.65;33.05;95008.44;4938565;29;1236;-53
2023/04/07 12:37:31;;;;;;;;;;;;;;;12.55;34.30;95002.44;4955728;29;979;-50
2023/04/07 12:39:58;;;;;;;;;;;;;;;12.59;33.79;95005.59;4955546;29;1984;-50
2023/04/07 12:42:25;;;;;;;;;;;;;;;12.61;34.26;95001.72;4955466;29;1058;-51
2023/04/07 12:44:51;;;;;;;;;;;;;;;12.66;35.02;94996.66;4955444;29;1003;-52
2023/04/07 12:47:17;;;;;;;;;;;;;;;12.58;34.18;95002.09;4955562;29;1023;-51
2023/04/07 12:49:44;;;;;;;;;;;;;;;12.63;35.01;94998.88;4955562;29;1047;-51
2023/04/07 12:52:10;;;;;;;;;;;;;;;12.68;34.44;94997.31;4955345;29;972;-50
2023/04/07 12:54:37;;;;;;;;;;;;;;;12.63;34.29;94999.69;4955355;29;1071;-51
2023/04/07 12:57:03;;;;;;;;;;;;;;;12.76;35.11;94998.28;4955129;29;1512;-51
2023/04/07 12:59:29;;;;;;;;;;;;;;;12.93;34.47;94999.00;4955162;29;980;-51
2023/04/07 13:01:55;;;;;;;;;;;;;;;12.74;34.91;94998.44;4941939;29;1887;-51
2023/04/07 13:04:23;;;;;;;;;;;;;;;12.75;35.83;94999.28;4935994;29;1087;-52
2023/04/07 13:06:49;;;;;;;;;;;;;;;12.77;36.14;95002.66;4936070;29;995;-51
2023/04/07 13:09:16;;;;;;;;;;;;;;;12.88;35.37;95003.06;4946203;29;1245;-51